Time;durP1;ratioP1;P1;durP2;ratioP2;P2;SDS_P1;SDS_P2;PMS_P1;PMS_P2;Temp;Humidity;BMP_temperature;BMP_pressure;BME280_temperature;BME280_humidity;BME280_pressure;Samples;Min_cycle;Max_cycle;Signal;HPM_P1;HPM_P2
2022/06/25 00:02:16;;;;;;;26.47;22.50;;;19.30;99.90;;;;;;5038542;28;20222;-49
2022/06/25 00:07:29;;;;;;;25.13;22.30;;;19.30;99.90;;;;;;5032728;28;20213;-46
2022/06/25 00:09:55;;;;;;;26.03;22.10;;;19.20;99.90;;;;;;5036680;28;20249;-47
2022/06/25 00:12:34;;;;;;;24.30;21.73;;;19.20;99.90;;;;;;5032997;28;20234;-48
2022/06/25 00:15:03;;;;;;;28.93;24.97;;;19.30;99.90;;;;;;5024745;28;20222;-47
2022/06/25 00:17:30;;;;;;;29.67;25.53;;;19.20;99.90;;;;;;5032482;28;20265;-47
2022/06/25 00:19:58;;;;;;;31.53;24.77;;;19.10;99.90;;;;;;5042878;28;20195;-46
2022/06/25 00:22:25;;;;;;;31.60;25.23;;;19.10;99.90;;;;;;5038347;28;20227;-48
2022/06/25 00:24:53;;;;;;;30.97;27.63;;;19.10;99.90;;;;;;5040942;28;20222;-46
2022/06/25 00:27:19;;;;;;;30.40;26.67;;;19.10;99.90;;;;;;5039930;28;20227;-49
2022/06/25 00:29:46;;;;;;;28.13;25.10;;;19.10;99.90;;;;;;5027440;28;20199;-46
2022/06/25 00:32:13;;;;;;;30.00;26.53;;;19.00;99.90;;;;;;5028196;28;20305;-47
2022/06/25 00:34:41;;;;;;;30.87;26.53;;;19.00;99.90;;;;;;5040750;28;20206;-49
2022/06/25 00:37:10;;;;;;;28.50;22.77;;;18.90;99.90;;;;;;5045738;28;20195;-49
2022/06/25 00:39:37;;;;;;;28.70;24.80;;;19.00;99.90;;;;;;5042374;28;20199;-48
2022/06/25 00:42:09;;;;;;;26.80;24.10;;;19.00;99.90;;;;;;5046392;28;20230;-47
2022/06/25 00:44:37;;;;;;;31.53;25.57;;;19.00;99.90;;;;;;5029425;28;20313;-49
2022/06/25 00:47:05;;;;;;;30.03;24.20;;;19.00;99.90;;;;;;5035427;28;20219;-49
2022/06/25 00:49:32;;;;;;;30.90;24.90;;;18.90;99.90;;;;;;5034493;28;20192;-47
2022/06/25 00:52:03;;;;;;;30.43;24.00;;;18.90;99.90;;;;;;5044706;28;20273;-46
2022/06/25 00:54:36;;;;;;;28.87;24.27;;;18.90;99.90;;;;;;5041269;28;20382;-46
2022/06/25 00:57:06;;;;;;;27.37;22.80;;;19.00;99.90;;;;;;5046274;28;20691;-49
2022/06/25 00:59:38;;;;;;;24.63;21.97;;;19.10;99.90;;;;;;5041303;28;20261;-46
2022/06/25 01:02:06;;;;;;;26.77;22.30;;;19.00;99.90;;;;;;5025601;28;20238;-46
2022/06/25 01:04:33;;;;;;;27.37;23.23;;;19.00;99.90;;;;;;5041852;28;20192;-48
2022/06/25 01:07:00;;;;;;;25.93;22.80;;;19.00;99.90;;;;;;5045828;28;20219;-47
2022/06/25 01:09:28;;;;;;;25.93;22.40;;;18.90;99.90;;;;;;5041712;28;20192;-46
2022/06/25 01:11:56;;;;;;;23.43;20.97;;;18.90;99.90;;;;;;5045820;28;20215;-45
2022/06/25 01:14:23;;;;;;;26.50;22.17;;;19.00;99.90;;;;;;5041860;28;20203;-46
2022/06/25 01:16:50;;;;;;;23.67;21.17;;;19.00;99.90;;;;;;5021831;28;20207;-46
2022/06/25 01:19:17;;;;;;;26.27;22.00;;;19.00;99.90;;;;;;5037578;28;20698;-48
2022/06/25 01:21:44;;;;;;;24.97;21.17;;;18.90;99.90;;;;;;5042605;28;20219;-45
2022/06/25 01:24:13;;;;;;;22.73;20.30;;;18.80;99.90;;;;;;5043646;28;20207;-50
2022/06/25 01:26:41;;;;;;;22.53;20.17;;;18.80;99.90;;;;;;5043300;28;20249;-46
2022/06/25 01:29:10;;;;;;;25.63;20.87;;;18.80;99.90;;;;;;5044848;28;20199;-48
2022/06/25 01:31:37;;;;;;;22.30;19.20;;;18.90;99.90;;;;;;5028430;28;21079;-47
2022/06/25 01:34:04;;;;;;;23.20;19.83;;;18.90;99.90;;;;;;5044872;28;20195;-45
2022/06/25 01:36:31;;;;;;;20.93;18.67;;;18.90;99.90;;;;;;5041357;28;20194;-46
2022/06/25 01:38:57;;;;;;;21.47;19.17;;;18.90;99.90;;;;;;5045484;28;20310;-46
2022/06/25 01:41:29;;;;;;;25.17;20.73;;;18.90;99.90;;;;;;5039813;28;20296;-46
2022/06/25 01:43:56;;;;;;;21.87;19.57;;;18.80;99.90;;;;;;5043642;28;20207;-48
2022/06/25 01:46:23;;;;;;;23.93;20.60;;;18.80;99.90;;;;;;5028023;28;20203;-46
2022/06/25 01:48:50;;;;;;;28.77;21.70;;;18.80;99.90;;;;;;5044523;28;20207;-46
2022/06/25 01:51:17;;;;;;;26.73;22.77;;;18.70;99.90;;;;;;5042589;28;20207;-47
2022/06/25 01:53:47;;;;;;;23.93;21.63;;;18.70;99.90;;;;;;5042154;28;20199;-49
2022/06/25 01:56:14;;;;;;;25.50;22.83;;;18.70;99.90;;;;;;5042838;28;20556;-48
2022/06/25 01:58:42;;;;;;;30.73;24.37;;;18.60;99.90;;;;;;5043090;28;20937;-45
2022/06/25 02:01:10;;;;;;;30.23;24.63;;;18.60;99.90;;;;;;5042524;28;20575;-50
2022/06/25 02:03:37;;;;;;;28.03;24.73;;;18.60;99.90;;;;;;5025820;28;20910;-45
2022/06/25 02:06:04;;;;;;;29.93;25.47;;;18.50;99.90;;;;;;5043131;28;20203;-45
2022/06/25 02:08:34;;;;;;;29.30;26.00;;;18.40;99.90;;;;;;5039480;28;20223;-45
2022/06/25 02:11:03;;;;;;;28.13;25.13;;;18.40;99.90;;;;;;5044594;28;20286;-46
2022/06/25 02:13:30;;;;;;;29.80;26.10;;;18.50;99.90;;;;;;5039111;28;20191;-47
2022/06/25 02:15:58;;;;;;;32.90;27.80;;;18.40;99.90;;;;;;5043150;28;20199;-46
2022/06/25 02:18:25;;;;;;;32.17;27.87;;;18.50;99.90;;;;;;5024874;28;21393;-48
2022/06/25 02:20:53;;;;;;;34.03;29.50;;;18.40;99.90;;;;;;5044277;28;20187;-47
2022/06/25 02:23:24;;;;;;;32.83;29.40;;;18.40;99.90;;;;;;5036608;28;20231;-48
2022/06/25 02:25:52;;;;;;;34.77;30.23;;;18.30;99.90;;;;;;5036623;28;20310;-45
2022/06/25 02:28:19;;;;;;;38.30;30.77;;;18.30;99.90;;;;;;5033607;28;20365;-48
2022/06/25 02:30:47;;;;;;;34.63;29.67;;;18.30;99.90;;;;;;5037104;28;20199;-46
2022/06/25 02:33:16;;;;;;;35.03;28.53;;;18.30;99.90;;;;;;5028820;28;20699;-46
2022/06/25 02:35:45;;;;;;;32.57;28.13;;;18.30;99.90;;;;;;5036645;28;20203;-48
2022/06/25 02:38:15;;;;;;;34.13;29.30;;;18.30;99.90;;;;;;5040875;28;20203;-46
2022/06/25 02:40:43;;;;;;;36.07;31.23;;;18.30;99.90;;;;;;5041320;28;20227;-47
2022/06/25 02:43:10;;;;;;;38.33;30.83;;;18.20;99.90;;;;;;5041569;28;20227;-46
2022/06/25 02:45:42;;;;;;;40.77;33.63;;;18.20;99.90;;;;;;5040989;28;20198;-45
2022/06/25 02:48:10;;;;;;;39.73;34.93;;;18.20;99.90;;;;;;5041858;28;20734;-50
2022/06/25 02:50:38;;;;;;;43.93;33.77;;;18.10;99.90;;;;;;5019031;28;20195;-47
2022/06/25 02:53:08;;;;;;;40.30;33.27;;;18.10;99.90;;;;;;5041222;28;20641;-45
2022/06/25 03:01:08;;;;;;;42.40;35.77;;;18.00;99.90;;;;;;5022936;28;20199;-48
2022/06/25 03:03:37;;;;;;;47.37;37.37;;;18.00;99.90;;;;;;5039660;28;20527;-49
2022/06/25 03:06:05;;;;;;;47.53;37.87;;;18.00;99.90;;;;;;5027716;28;20273;-45
2022/06/25 03:08:32;;;;;;;48.20;38.30;;;18.00;99.90;;;;;;5038381;28;20838;-49
2022/06/25 03:10:59;;;;;;;51.20;40.73;;;18.00;99.90;;;;;;5043687;28;20218;-46
2022/06/25 03:13:26;;;;;;;53.50;42.73;;;18.00;99.90;;;;;;5037937;28;20206;-47
2022/06/25 03:15:54;;;;;;;55.53;43.37;;;18.00;99.90;;;;;;5042341;28;20207;-48
2022/06/25 03:18:22;;;;;;;57.50;43.20;;;17.90;99.90;;;;;;5039126;28;20207;-50
2022/06/25 03:21:26;;;;;;;68.77;44.10;;;17.90;99.90;;;;;;5023792;28;21592;-47
2022/06/25 03:24:04;;;;;;;60.67;42.43;;;17.80;99.90;;;;;;5036096;28;20201;-47
2022/06/25 03:26:33;;;;;;;60.13;43.37;;;17.80;99.90;;;;;;5038115;28;20935;-46
2022/06/25 03:28:59;;;;;;;59.57;43.40;;;17.80;99.90;;;;;;5043570;28;20215;-48
2022/06/25 03:31:29;;;;;;;68.20;44.87;;;17.70;99.90;;;;;;5038393;28;20216;-46
2022/06/25 03:33:58;;;;;;;57.03;42.50;;;17.70;99.90;;;;;;5043021;28;20828;-49
2022/06/25 03:36:36;;;;;;;58.40;44.70;;;17.70;99.90;;;;;;5039119;28;20338;-47
2022/06/25 03:39:04;;;;;;;60.03;43.17;;;17.70;99.90;;;;;;5023389;28;20211;-47
2022/06/25 03:41:36;;;;;;;60.20;44.30;;;17.70;99.90;;;;;;5038118;28;20219;-48
2022/06/25 03:44:21;;;;;;;55.37;44.30;;;17.70;99.90;;;;;;5039781;28;20660;-48
2022/06/25 03:46:53;;;;;;;64.43;47.13;;;17.60;99.90;;;;;;5022462;28;20246;-46
2022/06/25 03:49:20;;;;;;;64.00;45.13;;;17.60;99.90;;;;;;5032359;28;20207;-47
2022/06/25 03:51:54;;;;;;;61.23;45.07;;;17.70;99.90;;;;;;5035741;28;20718;-45
2022/06/25 03:54:22;;;;;;;62.00;47.43;;;17.70;99.90;;;;;;5016603;28;20772;-45
2022/06/25 03:56:49;;;;;;;61.30;46.20;;;17.70;99.90;;;;;;5041277;28;20253;-47
2022/06/25 03:59:17;;;;;;;66.30;46.90;;;17.70;99.90;;;;;;5032566;28;20607;-46
2022/06/25 04:01:45;;;;;;;80.13;45.50;;;17.70;99.90;;;;;;5040100;28;20230;-45
2022/06/25 04:04:13;;;;;;;60.43;46.27;;;17.70;99.90;;;;;;5039840;28;20695;-47
2022/06/25 04:06:39;;;;;;;57.23;44.33;;;17.70;99.90;;;;;;5039540;28;20198;-48
2022/06/25 04:09:08;;;;;;;56.00;43.43;;;17.60;99.90;;;;;;5040114;28;20238;-46
2022/06/25 04:11:36;;;;;;;58.33;45.37;;;17.60;99.90;;;;;;5033159;28;20227;-45
2022/06/25 04:14:03;;;;;;;58.20;43.80;;;17.70;99.90;;;;;;5045199;28;20206;-46
2022/06/25 04:16:31;;;;;;;58.43;46.07;;;17.70;99.90;;;;;;5041684;28;20203;-47
2022/06/25 04:19:08;;;;;;;59.13;43.83;;;17.70;99.90;;;;;;5044997;28;20229;-46
2022/06/25 04:21:35;;;;;;;56.00;43.90;;;17.70;99.90;;;;;;5042225;28;20767;-51
2022/06/25 04:24:03;;;;;;;60.27;44.43;;;17.70;99.90;;;;;;5045114;28;20699;-47
2022/06/25 04:26:31;;;;;;;58.13;43.93;;;17.80;99.90;;;;;;5026603;28;20223;-46
2022/06/25 04:29:03;;;;;;;53.13;42.57;;;17.80;99.90;;;;;;5043494;28;20248;-47
2022/06/25 04:31:39;;;;;;;58.40;45.33;;;17.80;99.90;;;;;;5042402;28;20254;-50
2022/06/25 04:34:12;;;;;;;57.07;42.87;;;17.80;99.90;;;;;;5043643;28;20199;-48
2022/06/25 04:36:40;;;;;;;48.03;39.97;;;17.80;99.90;;;;;;5038082;28;20245;-46
2022/06/25 04:39:23;;;;;;;55.53;43.13;;;17.80;99.90;;;;;;5037541;28;20219;-47
2022/06/25 04:41:53;;;;;;;52.60;41.10;;;17.80;99.90;;;;;;5032091;28;20700;-45
2022/06/25 04:44:22;;;;;;;49.87;41.80;;;17.80;99.90;;;;;;5041223;28;20723;-47
2022/06/25 04:46:49;;;;;;;54.63;42.90;;;17.80;99.90;;;;;;5044974;28;20625;-45
2022/06/25 04:49:21;;;;;;;52.13;41.93;;;17.80;99.90;;;;;;5041797;28;20223;-51
2022/06/25 04:51:49;;;;;;;54.67;42.57;;;17.90;99.90;;;;;;5044735;28;20233;-49
2022/06/25 04:54:15;;;;;;;58.40;45.03;;;17.90;99.90;;;;;;5043771;28;20203;-48
2022/06/25 04:56:45;;;;;;;56.57;45.33;;;17.90;99.90;;;;;;5043872;28;20207;-51
2022/06/25 04:59:18;;;;;;;56.87;45.57;;;18.00;99.90;;;;;;5028481;28;20300;-47
2022/06/25 05:01:51;;;;;;;56.00;43.70;;;18.00;99.90;;;;;;5043074;28;20227;-45
2022/06/25 05:04:21;;;;;;;56.37;44.57;;;18.00;99.90;;;;;;5041289;28;20587;-49
2022/06/25 05:06:48;;;;;;;52.10;42.93;;;17.90;99.90;;;;;;5034922;28;20211;-47
2022/06/25 05:09:15;;;;;;;55.50;42.97;;;17.90;99.90;;;;;;5040731;28;20560;-46
2022/06/25 05:11:43;;;;;;;55.53;43.07;;;17.90;99.90;;;;;;5036809;28;21049;-46
2022/06/25 05:14:10;;;;;;;52.37;41.60;;;17.90;99.90;;;;;;5023214;28;20222;-46
2022/06/25 05:16:39;;;;;;;55.03;43.77;;;17.90;99.90;;;;;;5032078;28;20682;-46
2022/06/25 05:19:07;;;;;;;53.20;42.73;;;17.90;99.90;;;;;;5040376;28;20714;-45
2022/06/25 05:21:34;;;;;;;53.10;41.47;;;17.90;99.90;;;;;;5023232;28;20228;-47
2022/06/25 05:24:05;;;;;;;59.87;45.30;;;17.90;99.90;;;;;;5038465;28;20209;-51
2022/06/25 05:26:32;;;;;;;53.57;42.40;;;17.90;99.90;;;;;;5036815;28;20202;-49
2022/06/25 05:28:59;;;;;;;48.33;40.90;;;18.00;99.90;;;;;;5030041;28;20711;-49
2022/06/25 05:31:26;;;;;;;49.13;40.00;;;18.00;99.90;;;;;;5032819;28;20203;-47
2022/06/25 05:33:55;;;;;;;50.43;39.93;;;18.00;99.90;;;;;;5044371;28;20206;-47
2022/06/25 05:36:22;;;;;;;49.77;39.87;;;18.00;99.90;;;;;;5031607;28;20184;-45
2022/06/25 05:38:50;;;;;;;48.03;38.53;;;17.90;99.90;;;;;;5036771;28;20253;-45
2022/06/25 05:41:17;;;;;;;44.97;36.27;;;18.00;99.90;;;;;;5032493;28;20202;-49
2022/06/25 05:43:44;;;;;;;46.10;37.70;;;18.00;99.90;;;;;;5029924;28;20215;-48
2022/06/25 05:46:11;;;;;;;43.07;36.50;;;18.10;99.90;;;;;;5021409;28;20682;-47
2022/06/25 05:48:38;;;;;;;41.37;35.83;;;18.10;99.90;;;;;;5042092;28;20222;-47
2022/06/25 05:51:06;;;;;;;42.43;32.03;;;18.20;99.90;;;;;;5034708;28;20627;-48
2022/06/25 05:53:33;;;;;;;39.50;32.50;;;18.20;99.90;;;;;;5037637;28;20195;-45
2022/06/25 05:55:59;;;;;;;41.30;31.47;;;18.30;99.90;;;;;;5039851;28;20563;-50
2022/06/25 05:58:26;;;;;;;35.50;31.07;;;18.30;99.90;;;;;;5036054;28;21274;-46
2022/06/25 06:00:53;;;;;;;35.37;27.77;;;18.40;99.90;;;;;;5041464;28;20201;-46
2022/06/25 06:03:19;;;;;;;34.53;27.90;;;18.40;99.90;;;;;;5022931;28;20276;-46
2022/06/25 06:05:46;;;;;;;29.90;26.53;;;18.60;99.90;;;;;;5039971;28;20707;-48
2022/06/25 06:08:14;;;;;;;31.17;25.60;;;18.60;99.90;;;;;;5030013;28;20219;-45
2022/06/25 06:10:40;;;;;;;28.60;25.60;;;18.70;99.90;;;;;;5036212;28;20201;-49
2022/06/25 06:13:07;;;;;;;26.83;23.73;;;18.80;99.90;;;;;;5039779;28;20223;-48
2022/06/25 06:15:34;;;;;;;29.10;23.30;;;18.90;99.90;;;;;;5032707;28;20725;-49
2022/06/25 06:18:00;;;;;;;26.23;22.33;;;19.00;99.90;;;;;;5026443;28;20207;-46
2022/06/25 06:20:27;;;;;;;28.03;22.53;;;19.10;99.90;;;;;;5039662;28;20202;-45
2022/06/25 06:22:54;;;;;;;23.03;20.67;;;19.20;99.90;;;;;;5038774;28;20276;-49
2022/06/25 06:25:22;;;;;;;22.83;20.53;;;19.30;99.90;;;;;;5024500;28;20223;-46
2022/06/25 06:27:49;;;;;;;22.40;19.90;;;19.40;99.90;;;;;;5039618;28;20627;-45
2022/06/25 06:30:16;;;;;;;22.23;19.47;;;19.60;99.90;;;;;;5030677;28;20210;-45
2022/06/25 06:32:43;;;;;;;20.57;18.47;;;19.70;99.90;;;;;;5035777;28;20314;-50
2022/06/25 06:35:09;;;;;;;20.87;18.47;;;19.80;99.90;;;;;;5026554;28;20211;-49
2022/06/25 06:37:36;;;;;;;19.23;17.30;;;19.90;99.90;;;;;;5039671;28;20195;-47
2022/06/25 06:40:04;;;;;;;16.80;14.57;;;20.00;99.90;;;;;;5026984;28;20199;-47
2022/06/25 06:42:32;;;;;;;20.13;17.50;;;20.10;99.90;;;;;;5039298;28;20215;-49
2022/06/25 06:44:58;;;;;;;21.10;15.83;;;20.10;99.90;;;;;;5028689;28;20195;-47
2022/06/25 06:47:25;;;;;;;15.40;13.97;;;20.30;99.90;;;;;;5038437;28;20684;-47
2022/06/25 06:49:52;;;;;;;14.93;13.53;;;20.40;99.90;;;;;;5024441;28;20585;-49
2022/06/25 06:52:19;;;;;;;12.00;10.73;;;20.40;99.90;;;;;;5034924;28;20216;-47
2022/06/25 06:54:46;;;;;;;13.13;11.93;;;20.50;99.90;;;;;;5034962;28;20605;-52
2022/06/25 06:57:14;;;;;;;12.73;11.53;;;20.60;99.90;;;;;;5034843;28;20209;-46
2022/06/25 06:59:42;;;;;;;12.73;11.43;;;20.70;99.90;;;;;;5038442;28;20552;-49
2022/06/25 07:02:09;;;;;;;11.57;10.47;;;20.80;99.90;;;;;;5029388;28;20227;-46
2022/06/25 07:04:36;;;;;;;10.57;9.67;;;20.90;99.90;;;;;;5027112;28;20218;-51
2022/06/25 07:07:04;;;;;;;9.70;8.83;;;21.00;99.90;;;;;;5038199;28;20896;-46
2022/06/25 07:09:31;;;;;;;8.60;7.80;;;21.10;99.90;;;;;;5037453;28;20222;-46
2022/06/25 07:11:58;;;;;;;7.57;6.70;;;21.20;99.90;;;;;;5026394;28;20225;-51
2022/06/25 07:14:24;;;;;;;6.40;5.80;;;21.30;99.90;;;;;;5040309;28;20659;-52
2022/06/25 07:16:52;;;;;;;6.20;5.80;;;21.40;99.90;;;;;;5027938;28;20565;-49
2022/06/25 07:19:19;;;;;;;4.20;3.90;;;21.50;99.90;;;;;;5024371;28;20207;-45
2022/06/25 07:21:46;;;;;;;4.97;4.63;;;21.60;99.90;;;;;;5030582;28;20295;-46
2022/06/25 07:24:13;;;;;;;4.40;4.13;;;21.70;99.90;;;;;;5035809;28;20192;-47
2022/06/25 07:26:41;;;;;;;4.40;4.00;;;21.80;99.90;;;;;;5030819;28;20286;-47
2022/06/25 07:29:08;;;;;;;4.30;4.00;;;21.80;99.90;;;;;;5036627;28;20218;-46
2022/06/25 07:31:34;;;;;;;4.57;4.27;;;21.90;99.90;;;;;;5038847;28;20825;-48
2022/06/25 07:34:02;;;;;;;4.00;3.80;;;22.00;99.90;;;;;;5018085;28;20215;-50
2022/06/25 07:36:29;;;;;;;3.65;3.45;;;22.10;99.90;;;;;;5039740;28;20210;-48
2022/06/25 07:38:56;;;;;;;3.60;3.40;;;22.20;99.90;;;;;;5039409;28;20310;-46
2022/06/25 07:41:23;;;;;;;5.13;4.00;;;22.30;99.90;;;;;;5028128;28;20219;-47
2022/06/25 07:43:50;;;;;;;4.07;3.67;;;22.30;99.90;;;;;;5036550;28;20207;-49
2022/06/25 07:46:17;;;;;;;3.42;3.22;;;22.40;99.90;;;;;;5042197;28;20195;-45
2022/06/25 07:48:44;;;;;;;4.18;3.22;;;22.40;99.90;;;;;;5034664;28;20288;-48
2022/06/25 07:53:57;;;;;;;3.17;2.97;;;22.50;99.90;;;;;;5036426;28;20203;-49
2022/06/25 07:56:24;;;;;;;3.95;3.65;;;22.60;99.90;;;;;;5036278;28;20680;-49
2022/06/25 07:58:51;;;;;;;3.47;3.27;;;22.70;99.90;;;;;;5037984;28;20222;-46
2022/06/25 08:01:18;;;;;;;4.47;3.90;;;22.70;99.90;;;;;;5040798;28;20196;-48
2022/06/25 08:03:45;;;;;;;4.18;3.88;;;22.80;99.90;;;;;;5038279;28;20199;-49
2022/06/25 08:06:13;;;;;;;3.20;3.00;;;22.90;99.90;;;;;;5030907;28;20203;-49
2022/06/25 08:08:40;;;;;;;3.45;3.25;;;22.90;99.90;;;;;;5042189;28;20277;-46
2022/06/25 08:11:07;;;;;;;3.70;3.50;;;23.00;99.90;;;;;;5046721;28;20664;-45
2022/06/25 08:13:35;;;;;;;4.38;3.95;;;23.00;99.90;;;;;;5034340;28;20199;-45
2022/06/25 08:16:01;;;;;;;3.42;3.20;;;23.10;99.90;;;;;;5042659;28;20253;-47
2022/06/25 08:18:28;;;;;;;7.40;3.67;;;23.20;99.90;;;;;;5043044;28;20203;-46
2022/06/25 08:20:55;;;;;;;3.53;3.30;;;23.20;99.90;;;;;;5029040;28;20215;-47
2022/06/25 08:23:24;;;;;;;4.00;3.70;;;23.40;99.90;;;;;;5041586;28;20221;-45
2022/06/25 08:25:51;;;;;;;3.58;3.28;;;23.50;99.90;;;;;;5038338;28;20206;-45
2022/06/25 08:28:18;;;;;;;3.90;3.70;;;23.50;99.90;;;;;;5037673;28;20567;-49
2022/06/25 08:30:45;;;;;;;4.97;4.57;;;23.50;99.90;;;;;;5038602;28;20225;-52
2022/06/25 08:33:14;;;;;;;5.07;4.68;;;23.60;99.90;;;;;;5038388;28;20227;-45
2022/06/25 08:35:41;;;;;;;4.18;3.88;;;23.70;99.90;;;;;;5042011;28;20199;-47
2022/06/25 08:38:08;;;;;;;4.18;3.83;;;23.80;99.90;;;;;;5030985;28;20269;-48
2022/06/25 08:40:37;;;;;;;3.40;2.88;;;23.90;99.90;;;;;;5042916;28;20309;-47
2022/06/25 08:43:05;;;;;;;4.07;3.78;;;24.10;99.90;;;;;;5040816;28;20215;-46
2022/06/25 08:45:33;;;;;;;3.85;3.55;;;24.10;99.90;;;;;;5042964;28;20198;-46
2022/06/25 08:48:01;;;;;;;3.63;3.42;;;24.20;99.90;;;;;;5042221;28;20278;-46
2022/06/25 08:50:29;;;;;;;3.85;3.53;;;24.30;99.90;;;;;;5043120;28;20228;-47
2022/06/25 08:52:56;;;;;;;3.90;3.60;;;24.40;99.90;;;;;;5029485;28;20236;-47
2022/06/25 08:55:30;;;;;;;3.85;3.50;;;24.60;99.90;;;;;;5043710;28;20203;-47
2022/06/25 08:57:58;;;;;;;4.20;3.80;;;24.60;99.90;;;;;;5036452;28;20931;-45
2022/06/25 09:00:26;;;;;;;3.83;3.40;;;24.70;99.90;;;;;;5044836;28;20568;-46
2022/06/25 09:02:53;;;;;;;3.88;3.58;;;24.70;99.90;;;;;;5036611;28;20301;-46
2022/06/25 09:05:25;;;;;;;4.60;3.90;;;24.90;99.90;;;;;;5045524;28;20261;-45
2022/06/25 09:07:54;;;;;;;3.85;3.65;;;25.00;99.90;;;;;;5028677;28;20211;-48
2022/06/25 09:10:23;;;;;;;4.72;3.47;;;25.10;99.90;;;;;;5045435;28;20695;-47
2022/06/25 09:12:51;;;;;;;4.55;4.25;;;25.10;99.90;;;;;;5028622;28;20284;-48
2022/06/25 09:15:20;;;;;;;4.72;4.38;;;25.00;99.90;;;;;;5045427;28;20916;-48
2022/06/25 09:17:50;;;;;;;3.92;3.72;;;24.90;99.90;;;;;;5037668;28;20299;-52
2022/06/25 09:20:18;;;;;;;4.32;3.53;;;24.90;99.90;;;;;;5033507;28;20198;-48
2022/06/25 09:22:59;;;;;;;4.13;3.72;;;24.90;99.90;;;;;;5035178;28;20234;-46
2022/06/25 09:25:27;;;;;;;4.63;4.28;;;25.00;99.90;;;;;;5040220;28;20690;-47
2022/06/25 09:27:55;;;;;;;3.40;3.20;;;24.90;99.90;;;;;;5042183;28;20222;-46
2022/06/25 09:30:23;;;;;;;3.97;3.50;;;25.00;99.90;;;;;;5039898;28;20216;-45
2022/06/25 09:32:51;;;;;;;5.00;4.70;;;25.20;99.90;;;;;;5043943;28;20250;-47
2022/06/25 09:35:34;;;;;;;4.00;3.80;;;25.30;99.90;;;;;;5042459;28;20198;-46
2022/06/25 09:38:03;;;;;;;3.78;3.58;;;25.30;99.90;;;;;;5022684;28;20680;-48
2022/06/25 09:40:30;;;;;;;4.82;4.38;;;25.40;99.90;;;;;;5037802;28;20202;-48
2022/06/25 09:42:58;;;;;;;6.00;5.30;;;25.50;99.90;;;;;;5031523;28;20717;-47
2022/06/25 09:45:26;;;;;;;4.88;4.53;;;25.40;99.90;;;;;;5040435;28;20207;-47
2022/06/25 09:47:56;;;;;;;5.32;4.82;;;25.40;99.90;;;;;;5033059;28;20696;-48
2022/06/25 09:50:23;;;;;;;5.15;4.75;;;25.30;99.90;;;;;;5035281;28;20214;-46
2022/06/25 09:52:52;;;;;;;4.93;4.63;;;25.30;99.90;;;;;;5039168;28;20220;-47
2022/06/25 09:55:20;;;;;;;5.43;5.03;;;25.30;99.90;;;;;;5021819;28;20964;-47
2022/06/25 09:57:48;;;;;;;6.22;5.82;;;25.30;99.90;;;;;;5044334;28;20723;-46
2022/06/25 10:00:16;;;;;;;6.15;5.75;;;25.30;99.90;;;;;;5034053;28;20195;-46
2022/06/25 10:02:46;;;;;;;5.95;5.55;;;25.30;99.90;;;;;;5039181;28;20223;-45
2022/06/25 10:05:17;;;;;;;6.93;6.32;;;25.50;99.90;;;;;;5035146;28;20291;-46
2022/06/25 10:08:05;;;;;;;6.63;6.03;;;25.70;99.90;;;;;;5037196;28;20217;-46
2022/06/25 10:10:39;;;;;;;5.45;4.95;;;25.80;99.90;;;;;;5026214;28;20227;-48
2022/06/25 10:13:06;;;;;;;5.82;5.43;;;25.90;99.90;;;;;;5035022;28;20713;-45
2022/06/25 10:15:33;;;;;;;5.65;5.35;;;25.80;99.90;;;;;;5029008;28;20645;-47
2022/06/25 10:18:04;;;;;;;6.28;5.88;;;25.80;99.90;;;;;;5033442;28;20199;-48
2022/06/25 10:20:33;;;;;;;6.85;6.25;;;25.80;99.90;;;;;;5043728;28;20202;-46
2022/06/25 10:23:02;;;;;;;4.85;4.55;;;25.60;99.90;;;;;;5038951;28;20289;-45
2022/06/25 10:25:29;;;;;;;6.05;5.38;;;25.50;99.90;;;;;;5028140;28;20205;-51
2022/06/25 10:28:11;;;;;;;4.97;4.68;;;25.50;99.90;;;;;;5042046;28;20237;-47
2022/06/25 10:30:44;;;;;;;6.07;5.68;;;25.50;99.90;;;;;;5033315;28;20404;-49
2022/06/25 10:33:14;;;;;;;5.25;4.97;;;25.50;99.90;;;;;;5030722;28;20221;-47
2022/06/25 10:35:41;;;;;;;5.15;4.75;;;25.70;99.90;;;;;;5034554;28;20708;-45
2022/06/25 10:38:10;;;;;;;4.78;4.40;;;25.90;99.90;;;;;;5029637;28;20192;-49
2022/06/25 10:40:52;;;;;;;4.78;4.32;;;26.10;99.20;;;;;;5027553;28;20195;-49
2022/06/25 10:43:42;;;;;;;4.13;3.83;;;26.30;99.20;;;;;;5040750;28;20215;-48
2022/06/25 10:46:22;;;;;;;4.47;4.20;;;26.30;98.70;;;;;;5028662;28;20838;-49
2022/06/25 10:48:57;;;;;;;3.30;3.10;;;26.30;98.40;;;;;;5031065;28;20200;-46
2022/06/25 10:51:29;;;;;;;3.72;3.40;;;26.20;98.00;;;;;;5024208;28;20225;-50
2022/06/25 10:53:57;;;;;;;3.90;3.60;;;26.20;97.50;;;;;;5037948;28;20207;-46
2022/06/25 10:56:23;;;;;;;3.45;3.05;;;26.30;97.30;;;;;;5021417;28;20214;-45
2022/06/25 10:58:51;;;;;;;3.20;2.58;;;26.30;96.80;;;;;;5034565;28;20204;-47
2022/06/25 11:01:30;;;;;;;3.17;2.97;;;26.40;97.10;;;;;;5030028;28;20191;-47
2022/06/25 11:04:07;;;;;;;3.33;3.03;;;26.40;96.80;;;;;;5037293;28;20327;-50
2022/06/25 11:06:38;;;;;;;8.45;3.40;;;26.60;95.30;;;;;;5030586;28;20207;-44
2022/06/25 11:09:14;;;;;;;2.70;2.60;;;26.60;95.60;;;;;;5039360;28;20195;-47
2022/06/25 11:11:43;;;;;;;3.25;3.05;;;26.70;95.30;;;;;;5022649;28;20352;-47
2022/06/25 11:14:17;;;;;;;3.55;3.35;;;26.80;94.60;;;;;;5039996;28;20199;-44
2022/06/25 11:16:44;;;;;;;3.20;3.00;;;26.90;94.20;;;;;;5034730;28;20207;-45
2022/06/25 11:19:12;;;;;;;2.60;2.40;;;26.80;93.80;;;;;;5041015;28;20203;-46
2022/06/25 11:21:42;;;;;;;2.40;2.30;;;26.70;93.80;;;;;;5027404;28;20290;-45
2022/06/25 11:24:15;;;;;;;2.20;2.10;;;26.60;93.50;;;;;;5039887;28;20210;-46
2022/06/25 11:29:30;;;;;;;2.10;1.95;;;26.80;93.00;;;;;;5030801;28;20251;-48
2022/06/25 11:31:58;;;;;;;2.35;2.20;;;26.90;92.70;;;;;;5035665;28;20269;-47
2022/06/25 11:34:28;;;;;;;2.47;2.30;;;27.20;92.00;;;;;;5031824;28;20577;-47
2022/06/25 11:37:03;;;;;;;2.47;2.28;;;27.20;91.40;;;;;;5034541;28;20206;-46
2022/06/25 11:39:31;;;;;;;2.30;2.20;;;27.30;92.00;;;;;;5025648;28;20518;-47
2022/06/25 11:41:58;;;;;;;2.20;2.10;;;27.60;91.20;;;;;;5038910;28;20306;-48
2022/06/25 11:44:26;;;;;;;2.10;2.00;;;27.60;90.70;;;;;;5023098;28;20207;-44
2022/06/25 11:46:54;;;;;;;2.00;1.90;;;27.50;90.70;;;;;;5041347;28;20202;-42
2022/06/25 11:49:22;;;;;;;2.05;1.95;;;27.50;90.50;;;;;;5020187;28;20576;-47
2022/06/25 11:51:55;;;;;;;2.25;2.10;;;27.30;90.50;;;;;;5034873;28;20298;-49
2022/06/25 11:54:24;;;;;;;2.00;1.83;;;27.20;90.70;;;;;;5031642;28;20207;-45
2022/06/25 11:56:53;;;;;;;3.60;2.10;;;27.10;91.00;;;;;;5040957;28;20286;-47
2022/06/25 11:59:27;;;;;;;2.03;1.90;;;27.00;91.10;;;;;;5021300;28;20200;-44
2022/06/25 12:01:55;;;;;;;1.85;1.75;;;26.90;90.40;;;;;;5040467;28;20230;-46
2022/06/25 12:04:21;;;;;;;2.17;2.08;;;27.10;90.80;;;;;;5026061;28;20214;-44
2022/06/25 12:06:49;;;;;;;3.17;2.00;;;27.30;89.50;;;;;;5035410;28;20203;-44
2022/06/25 12:09:20;;;;;;;2.00;1.90;;;27.40;88.40;;;;;;5027839;28;20210;-45
2022/06/25 12:11:55;;;;;;;2.38;1.90;;;27.40;88.20;;;;;;5033589;28;23378;-45
2022/06/25 12:14:28;;;;;;;2.67;2.10;;;27.60;87.80;;;;;;5027694;28;20203;-44
2022/06/25 12:16:56;;;;;;;8.02;3.20;;;27.70;87.30;;;;;;5038678;28;20202;-46
2022/06/25 12:19:23;;;;;;;8.50;2.10;;;27.60;84.80;;;;;;5028758;28;20284;-47
2022/06/25 12:21:50;;;;;;;2.13;2.03;;;27.50;84.20;;;;;;5039211;28;20770;-49
2022/06/25 12:24:20;;;;;;;1.90;1.80;;;27.30;85.90;;;;;;5029270;28;20218;-44
2022/06/25 12:26:54;;;;;;;1.90;1.80;;;27.40;85.10;;;;;;5033870;28;20219;-44
2022/06/25 12:29:25;;;;;;;1.70;1.60;;;27.40;84.80;;;;;;5025407;28;20557;-46
2022/06/25 12:31:56;;;;;;;3.33;2.50;;;27.40;85.00;;;;;;5036031;28;20224;-43
2022/06/25 12:34:24;;;;;;;2.67;2.42;;;27.50;85.90;;;;;;5033938;28;20210;-45
2022/06/25 12:36:51;;;;;;;2.20;2.10;;;27.60;84.80;;;;;;5042146;28;20212;-43
2022/06/25 12:39:34;;;;;;;2.30;2.10;;;27.60;84.70;;;;;;5031052;28;20601;-48
2022/06/25 12:42:08;;;;;;;2.15;2.05;;;27.70;83.60;;;;;;5036849;28;20238;-44
2022/06/25 12:44:37;;;;;;;2.05;1.95;;;27.70;84.30;;;;;;5033777;28;20267;-44
2022/06/25 12:47:07;;;;;;;2.38;2.00;;;27.80;84.40;;;;;;5016501;28;20223;-46
2022/06/25 12:49:56;;;;;;;1.90;1.80;;;28.10;83.60;;;;;;5034226;28;20287;-45
2022/06/25 12:52:26;;;;;;;2.65;2.00;;;28.30;82.70;;;;;;5026810;28;21009;-51
2022/06/25 12:54:55;;;;;;;1.83;1.73;;;28.40;82.30;;;;;;5041416;28;20195;-45
2022/06/25 12:57:28;;;;;;;2.10;2.00;;;28.70;81.20;;;;;;5036987;28;20351;-45
2022/06/25 12:59:56;;;;;;;1.98;1.88;;;28.70;79.60;;;;;;5043790;28;20210;-44